sensor_id;sensor_type;location;lat;lon;timestamp;pressure;altitude;pressure_sealevel;temperature;humidity
36222;BME280;22266;52.340;4.962;2023-07-29T00:01:17;100705.13;;;19.29;74.25
36222;BME280;22266;52.340;4.962;2023-07-29T00:03:44;100696.63;;;19.25;74.30
36222;BME280;22266;52.340;4.962;2023-07-29T00:06:11;100694.44;;;19.27;74.23
36222;BME280;22266;52.340;4.962;2023-07-29T00:08:37;100676.72;;;19.24;74.23
36222;BME280;22266;52.340;4.962;2023-07-29T00:11:04;100674.47;;;19.21;73.92
36222;BME280;22266;52.340;4.962;2023-07-29T00:13:30;100678.78;;;19.17;73.84
36222;BME280;22266;52.340;4.962;2023-07-29T00:15:57;100673.34;;;19.17;74.06
36222;BME280;22266;52.340;4.962;2023-07-29T00:18:23;100674.16;;;19.18;73.90
36222;BME280;22266;52.340;4.962;2023-07-29T00:20:50;100666.47;;;19.15;73.96
36222;BME280;22266;52.340;4.962;2023-07-29T00:23:17;100679.31;;;19.14;74.14
36222;BME280;22266;52.340;4.962;2023-07-29T00:25:45;100674.44;;;19.16;73.92
36222;BME280;22266;52.340;4.962;2023-07-29T00:28:12;100668.97;;;19.16;73.86
36222;BME280;22266;52.340;4.962;2023-07-29T00:30:38;100670.09;;;19.20;74.06
36222;BME280;22266;52.340;4.962;2023-07-29T00:33:05;100671.75;;;19.21;73.83
36222;BME280;22266;52.340;4.962;2023-07-29T00:35:31;100661.91;;;19.20;73.85
36222;BME280;22266;52.340;4.962;2023-07-29T00:37:59;100655.88;;;19.18;73.62
36222;BME280;22266;52.340;4.962;2023-07-29T00:40:27;100653.41;;;19.17;73.81
36222;BME280;22266;52.340;4.962;2023-07-29T00:42:54;100658.59;;;19.18;73.91
36222;BME280;22266;52.340;4.962;2023-07-29T00:45:21;100656.47;;;19.20;73.72
36222;BME280;22266;52.340;4.962;2023-07-29T00:47:48;100647.97;;;19.17;74.08
36222;BME280;22266;52.340;4.962;2023-07-29T00:50:16;100654.47;;;19.16;73.99
36222;BME280;22266;52.340;4.962;2023-07-29T00:52:43;100653.16;;;19.18;74.02
36222;BME280;22266;52.340;4.962;2023-07-29T00:55:10;100647.38;;;19.15;73.71
36222;BME280;22266;52.340;4.962;2023-07-29T00:57:37;100649.03;;;19.16;73.93
36222;BME280;22266;52.340;4.962;2023-07-29T01:00:04;100642.75;;;19.15;73.83
36222;BME280;22266;52.340;4.962;2023-07-29T01:02:31;100635.13;;;19.17;73.88
36222;BME280;22266;52.340;4.962;2023-07-29T01:05:00;100631.31;;;19.18;74.14
36222;BME280;22266;52.340;4.962;2023-07-29T01:10:35;100633.28;;;19.23;73.84
36222;BME280;22266;52.340;4.962;2023-07-29T01:13:18;100637.66;;;19.24;73.93
36222;BME280;22266;52.340;4.962;2023-07-29T01:15:55;100623.19;;;19.23;73.86
36222;BME280;22266;52.340;4.962;2023-07-29T01:18:28;100627.81;;;19.23;73.94
36222;BME280;22266;52.340;4.962;2023-07-29T01:21:03;100622.81;;;19.15;74.05
36222;BME280;22266;52.340;4.962;2023-07-29T01:23:31;100626.63;;;19.14;73.95
36222;BME280;22266;52.340;4.962;2023-07-29T01:25:58;100627.72;;;19.13;74.16
36222;BME280;22266;52.340;4.962;2023-07-29T01:28:26;100631.50;;;19.12;73.76
36222;BME280;22266;52.340;4.962;2023-07-29T01:31:02;100634.81;;;19.14;74.14
36222;BME280;22266;52.340;4.962;2023-07-29T01:33:42;100639.69;;;19.12;74.01
36222;BME280;22266;52.340;4.962;2023-07-29T01:36:18;100635.31;;;19.11;73.88
36222;BME280;22266;52.340;4.962;2023-07-29T01:38:48;100627.41;;;19.09;74.19
36222;BME280;22266;52.340;4.962;2023-07-29T01:41:16;100621.69;;;19.11;74.08
36222;BME280;22266;52.340;4.962;2023-07-29T01:43:44;100627.91;;;19.06;74.16
36222;BME280;22266;52.340;4.962;2023-07-29T01:46:11;100628.41;;;19.03;74.43
36222;BME280;22266;52.340;4.962;2023-07-29T01:48:39;100616.91;;;18.96;73.76
36222;BME280;22266;52.340;4.962;2023-07-29T01:51:06;100614.69;;;18.93;73.44
36222;BME280;22266;52.340;4.962;2023-07-29T01:53:33;100617.97;;;18.95;73.36
36222;BME280;22266;52.340;4.962;2023-07-29T01:56:01;100625.09;;;18.96;73.19
36222;BME280;22266;52.340;4.962;2023-07-29T01:58:28;100617.13;;;18.94;73.07
36222;BME280;22266;52.340;4.962;2023-07-29T02:00:55;100619.88;;;18.94;72.90
36222;BME280;22266;52.340;4.962;2023-07-29T02:03:21;100611.63;;;18.89;72.60
36222;BME280;22266;52.340;4.962;2023-07-29T02:05:48;100602.38;;;18.90;72.69
36222;BME280;22266;52.340;4.962;2023-07-29T02:08:15;100612.44;;;18.90;72.62
36222;BME280;22266;52.340;4.962;2023-07-29T02:10:41;100610.50;;;18.85;72.62
36222;BME280;22266;52.340;4.962;2023-07-29T02:13:12;100611.03;;;18.87;72.50
36222;BME280;22266;52.340;4.962;2023-07-29T02:15:39;100602.88;;;18.87;72.72
36222;BME280;22266;52.340;4.962;2023-07-29T02:18:05;100606.41;;;18.88;72.34
36222;BME280;22266;52.340;4.962;2023-07-29T02:20:33;100593.63;;;18.88;72.65
36222;BME280;22266;52.340;4.962;2023-07-29T02:23:00;100588.41;;;18.87;72.61
36222;BME280;22266;52.340;4.962;2023-07-29T02:25:27;100594.94;;;18.86;72.80
36222;BME280;22266;52.340;4.962;2023-07-29T02:27:53;100588.69;;;18.85;72.72
36222;BME280;22266;52.340;4.962;2023-07-29T02:30:21;100597.94;;;18.84;72.75
36222;BME280;22266;52.340;4.962;2023-07-29T02:32:47;100600.09;;;18.82;73.04
36222;BME280;22266;52.340;4.962;2023-07-29T02:35:14;100602.53;;;18.84;72.93
36222;BME280;22266;52.340;4.962;2023-07-29T02:37:41;100603.63;;;18.83;73.07
36222;BME280;22266;52.340;4.962;2023-07-29T02:40:07;100602.25;;;18.80;73.35
36222;BME280;22266;52.340;4.962;2023-07-29T02:42:34;100607.94;;;18.78;73.26
36222;BME280;22266;52.340;4.962;2023-07-29T02:45:00;100612.84;;;18.76;73.42
36222;BME280;22266;52.340;4.962;2023-07-29T02:47:27;100603.25;;;18.74;73.35
36222;BME280;22266;52.340;4.962;2023-07-29T02:49:53;100600.22;;;18.70;73.79
36222;BME280;22266;52.340;4.962;2023-07-29T02:52:20;100605.66;;;18.70;73.96
36222;BME280;22266;52.340;4.962;2023-07-29T02:54:46;100598.63;;;18.74;73.93
36222;BME280;22266;52.340;4.962;2023-07-29T02:57:13;100590.44;;;18.74;73.95
36222;BME280;22266;52.340;4.962;2023-07-29T02:59:40;100595.66;;;18.76;73.96
36222;BME280;22266;52.340;4.962;2023-07-29T03:02:06;100590.44;;;18.74;74.17
36222;BME280;22266;52.340;4.962;2023-07-29T03:04:33;100580.31;;;18.70;74.16
36222;BME280;22266;52.340;4.962;2023-07-29T03:07:00;100581.88;;;18.66;74.27
36222;BME280;22266;52.340;4.962;2023-07-29T03:09:27;100573.94;;;18.64;74.40
36222;BME280;22266;52.340;4.962;2023-07-29T03:11:53;100566.59;;;18.65;74.57
36222;BME280;22266;52.340;4.962;2023-07-29T03:14:21;100564.69;;;18.65;74.40
36222;BME280;22266;52.340;4.962;2023-07-29T03:16:47;100567.91;;;18.62;74.54
36222;BME280;22266;52.340;4.962;2023-07-29T03:19:15;100576.09;;;18.62;74.46
36222;BME280;22266;52.340;4.962;2023-07-29T03:21:42;100567.09;;;18.62;74.64
36222;BME280;22266;52.340;4.962;2023-07-29T03:24:08;100561.91;;;18.60;74.75
36222;BME280;22266;52.340;4.962;2023-07-29T03:26:35;100556.94;;;18.57;74.90
36222;BME280;22266;52.340;4.962;2023-07-29T03:29:02;100553.41;;;18.57;75.05
36222;BME280;22266;52.340;4.962;2023-07-29T03:31:29;100558.53;;;18.53;75.02
36222;BME280;22266;52.340;4.962;2023-07-29T03:33:55;100567.22;;;18.50;75.16
36222;BME280;22266;52.340;4.962;2023-07-29T03:36:22;100571.03;;;18.49;75.20
36222;BME280;22266;52.340;4.962;2023-07-29T03:38:48;100557.66;;;18.47;75.20
36222;BME280;22266;52.340;4.962;2023-07-29T03:41:15;100570.22;;;18.48;75.33
36222;BME280;22266;52.340;4.962;2023-07-29T03:43:42;100559.03;;;18.50;75.27
36222;BME280;22266;52.340;4.962;2023-07-29T03:46:08;100562.53;;;18.45;75.45
36222;BME280;22266;52.340;4.962;2023-07-29T03:48:39;100573.13;;;18.42;75.49
36222;BME280;22266;52.340;4.962;2023-07-29T03:51:05;100576.59;;;18.37;75.44
36222;BME280;22266;52.340;4.962;2023-07-29T03:53:32;100590.50;;;18.36;75.64
36222;BME280;22266;52.340;4.962;2023-07-29T03:55:58;100589.34;;;18.32;75.78
36222;BME280;22266;52.340;4.962;2023-07-29T03:58:25;100588.25;;;18.33;75.94
36222;BME280;22266;52.340;4.962;2023-07-29T04:00:52;100586.84;;;18.30;76.01
36222;BME280;22266;52.340;4.962;2023-07-29T04:03:19;100583.72;;;18.21;76.02
36222;BME280;22266;52.340;4.962;2023-07-29T04:05:46;100581.84;;;18.22;76.24
36222;BME280;22266;52.340;4.962;2023-07-29T04:08:13;100585.16;;;18.24;76.14
36222;BME280;22266;52.340;4.962;2023-07-29T04:10:40;100573.84;;;18.15;76.52
36222;BME280;22266;52.340;4.962;2023-07-29T04:13:06;100570.88;;;18.17;76.67
36222;BME280;22266;52.340;4.962;2023-07-29T04:15:33;100571.94;;;18.16;76.65
36222;BME280;22266;52.340;4.962;2023-07-29T04:17:59;100583.19;;;18.19;76.47
36222;BME280;22266;52.340;4.962;2023-07-29T04:20:26;100595.94;;;18.19;76.61
36222;BME280;22266;52.340;4.962;2023-07-29T04:22:53;100590.50;;;18.19;76.72
36222;BME280;22266;52.340;4.962;2023-07-29T04:25:19;100599.25;;;18.21;76.66
36222;BME280;22266;52.340;4.962;2023-07-29T04:27:46;100581.50;;;18.18;76.83
36222;BME280;22266;52.340;4.962;2023-07-29T04:30:12;100575.81;;;18.20;76.63
36222;BME280;22266;52.340;4.962;2023-07-29T04:32:39;100580.69;;;18.18;76.47
36222;BME280;22266;52.340;4.962;2023-07-29T04:35:07;100572.19;;;18.14;76.87
36222;BME280;22266;52.340;4.962;2023-07-29T04:37:35;100583.91;;;18.15;77.10
36222;BME280;22266;52.340;4.962;2023-07-29T04:40:02;100576.81;;;18.14;77.13
36222;BME280;22266;52.340;4.962;2023-07-29T04:42:29;100591.03;;;18.16;77.10
36222;BME280;22266;52.340;4.962;2023-07-29T04:44:55;100576.31;;;18.17;77.09
36222;BME280;22266;52.340;4.962;2023-07-29T04:47:22;100578.78;;;18.18;77.27
36222;BME280;22266;52.340;4.962;2023-07-29T04:49:51;100584.22;;;18.18;77.27
36222;BME280;22266;52.340;4.962;2023-07-29T04:52:17;100575.00;;;18.19;77.37
36222;BME280;22266;52.340;4.962;2023-07-29T04:54:45;100581.50;;;18.18;77.25
36222;BME280;22266;52.340;4.962;2023-07-29T04:57:13;100579.38;;;18.20;77.35
36222;BME280;22266;52.340;4.962;2023-07-29T04:59:39;100590.59;;;18.24;77.32
36222;BME280;22266;52.340;4.962;2023-07-29T05:02:06;100588.44;;;18.26;77.19
36222;BME280;22266;52.340;4.962;2023-07-29T05:04:32;100589.50;;;18.25;77.20
36222;BME280;22266;52.340;4.962;2023-07-29T05:06:59;100590.06;;;18.27;77.09
36222;BME280;22266;52.340;4.962;2023-07-29T05:09:25;100589.25;;;18.26;77.16
36222;BME280;22266;52.340;4.962;2023-07-29T05:11:54;100588.91;;;18.23;77.09
36222;BME280;22266;52.340;4.962;2023-07-29T05:14:21;100587.28;;;18.22;77.29
36222;BME280;22266;52.340;4.962;2023-07-29T05:16:47;100592.50;;;18.23;77.72
36222;BME280;22266;52.340;4.962;2023-07-29T05:19:14;100597.94;;;18.23;77.38
36222;BME280;22266;52.340;4.962;2023-07-29T05:21:40;100597.69;;;18.25;77.43
36222;BME280;22266;52.340;4.962;2023-07-29T05:24:07;100585.38;;;18.22;77.56
36222;BME280;22266;52.340;4.962;2023-07-29T05:26:34;100587.53;;;18.20;77.59
36222;BME280;22266;52.340;4.962;2023-07-29T05:29:01;100587.03;;;18.23;77.72
36222;BME280;22266;52.340;4.962;2023-07-29T05:31:27;100595.53;;;18.27;77.60
36222;BME280;22266;52.340;4.962;2023-07-29T05:33:54;100590.06;;;18.27;77.63
36222;BME280;22266;52.340;4.962;2023-07-29T05:36:21;100585.63;;;18.21;77.88
36222;BME280;22266;52.340;4.962;2023-07-29T05:38:47;100586.13;;;18.18;78.15
36222;BME280;22266;52.340;4.962;2023-07-29T05:41:14;100587.53;;;18.20;78.22
36222;BME280;22266;52.340;4.962;2023-07-29T05:43:40;100585.63;;;18.21;78.55
36222;BME280;22266;52.340;4.962;2023-07-29T05:46:09;100585.16;;;18.24;78.45
36222;BME280;22266;52.340;4.962;2023-07-29T05:48:36;100585.47;;;18.27;78.58
36222;BME280;22266;52.340;4.962;2023-07-29T05:51:03;100583.88;;;18.32;78.46
36222;BME280;22266;52.340;4.962;2023-07-29T05:53:32;100580.63;;;18.35;78.27
36222;BME280;22266;52.340;4.962;2023-07-29T05:55:58;100578.81;;;18.40;78.63
36222;BME280;22266;52.340;4.962;2023-07-29T05:58:25;100585.09;;;18.41;78.33
36222;BME280;22266;52.340;4.962;2023-07-29T06:00:52;100588.97;;;18.45;78.54
36222;BME280;22266;52.340;4.962;2023-07-29T06:03:19;100592.56;;;18.50;78.35
36222;BME280;22266;52.340;4.962;2023-07-29T06:05:46;100589.34;;;18.53;78.21
36222;BME280;22266;52.340;4.962;2023-07-29T06:08:13;100590.09;;;18.49;78.11
36222;BME280;22266;52.340;4.962;2023-07-29T06:10:39;100584.38;;;18.50;78.42
36222;BME280;22266;52.340;4.962;2023-07-29T06:13:06;100586.34;;;18.55;78.39
36222;BME280;22266;52.340;4.962;2023-07-29T06:15:32;100585.81;;;18.53;78.14
36222;BME280;22266;52.340;4.962;2023-07-29T06:17:59;100597.78;;;18.52;78.31
36222;BME280;22266;52.340;4.962;2023-07-29T06:20:26;100587.94;;;18.51;78.41
36222;BME280;22266;52.340;4.962;2023-07-29T06:22:52;100591.25;;;18.53;78.49
36222;BME280;22266;52.340;4.962;2023-07-29T06:25:19;100591.81;;;18.55;78.64
36222;BME280;22266;52.340;4.962;2023-07-29T06:27:46;100601.41;;;18.58;78.58
36222;BME280;22266;52.340;4.962;2023-07-29T06:30:12;100603.84;;;18.59;78.72
36222;BME280;22266;52.340;4.962;2023-07-29T06:32:39;100601.97;;;18.60;78.60
36222;BME280;22266;52.340;4.962;2023-07-29T06:35:06;100600.63;;;18.62;78.37
36222;BME280;22266;52.340;4.962;2023-07-29T06:37:32;100604.44;;;18.61;78.75
36222;BME280;22266;52.340;4.962;2023-07-29T06:39:59;100603.28;;;18.57;78.65
36222;BME280;22266;52.340;4.962;2023-07-29T06:42:26;100618.56;;;18.58;79.25
36222;BME280;22266;52.340;4.962;2023-07-29T06:44:53;100605.75;;;18.59;79.00
36222;BME280;22266;52.340;4.962;2023-07-29T06:47:19;100612.63;;;18.61;78.99
36222;BME280;22266;52.340;4.962;2023-07-29T06:49:46;100611.28;;;18.64;78.96
36222;BME280;22266;52.340;4.962;2023-07-29T06:52:13;100611.53;;;18.62;79.00
36222;BME280;22266;52.340;4.962;2023-07-29T06:54:39;100615.34;;;18.61;79.52
36222;BME280;22266;52.340;4.962;2023-07-29T06:57:06;100612.69;;;18.66;79.42
36222;BME280;22266;52.340;4.962;2023-07-29T06:59:33;100618.47;;;18.70;79.33
36222;BME280;22266;52.340;4.962;2023-07-29T07:01:59;100619.63;;;18.74;79.18
36222;BME280;22266;52.340;4.962;2023-07-29T07:04:26;100618.22;;;18.71;79.24
36222;BME280;22266;52.340;4.962;2023-07-29T07:06:53;100611.72;;;18.72;79.29
36222;BME280;22266;52.340;4.962;2023-07-29T07:09:19;100610.13;;;18.76;79.78
36222;BME280;22266;52.340;4.962;2023-07-29T07:11:46;100606.88;;;18.80;79.36
36222;BME280;22266;52.340;4.962;2023-07-29T07:14:12;100604.41;;;18.78;79.64
36222;BME280;22266;52.340;4.962;2023-07-29T07:16:39;100610.50;;;18.85;79.55
36222;BME280;22266;52.340;4.962;2023-07-29T07:19:06;100608.09;;;18.89;79.46
36222;BME280;22266;52.340;4.962;2023-07-29T07:21:32;100598.88;;;18.95;79.53
36222;BME280;22266;52.340;4.962;2023-07-29T07:23:59;100606.72;;;18.91;79.28
36222;BME280;22266;52.340;4.962;2023-07-29T07:26:25;100599.91;;;18.89;79.51
36222;BME280;22266;52.340;4.962;2023-07-29T07:28:52;100605.69;;;18.92;79.90
36222;BME280;22266;52.340;4.962;2023-07-29T07:31:18;100607.06;;;18.95;79.81
36222;BME280;22266;52.340;4.962;2023-07-29T07:33:46;100608.13;;;18.94;79.77
36222;BME280;22266;52.340;4.962;2023-07-29T07:36:12;100610.41;;;19.02;79.80
36222;BME280;22266;52.340;4.962;2023-07-29T07:38:39;100608.00;;;19.06;79.50
36222;BME280;22266;52.340;4.962;2023-07-29T07:41:05;100610.72;;;19.06;79.30
36222;BME280;22266;52.340;4.962;2023-07-29T07:43:32;100608.31;;;19.09;79.33
36222;BME280;22266;52.340;4.962;2023-07-29T07:46:00;100614.09;;;19.13;79.38
36222;BME280;22266;52.340;4.962;2023-07-29T07:48:27;100615.22;;;19.17;79.22
36222;BME280;22266;52.340;4.962;2023-07-29T07:50:56;100609.44;;;19.13;79.27
36222;BME280;22266;52.340;4.962;2023-07-29T07:53:23;100613.78;;;19.09;79.54
36222;BME280;22266;52.340;4.962;2023-07-29T07:55:51;100617.31;;;19.10;79.99
36222;BME280;22266;52.340;4.962;2023-07-29T07:58:18;100625.81;;;19.13;80.31
36222;BME280;22266;52.340;4.962;2023-07-29T08:00:44;100613.25;;;19.12;80.40
36222;BME280;22266;52.340;4.962;2023-07-29T08:03:11;100620.22;;;19.03;80.63
36222;BME280;22266;52.340;4.962;2023-07-29T08:05:37;100628.94;;;19.00;80.79
36222;BME280;22266;52.340;4.962;2023-07-29T08:08:04;100625.63;;;18.98;80.92
36222;BME280;22266;52.340;4.962;2023-07-29T08:10:30;100630.28;;;18.97;81.15
36222;BME280;22266;52.340;4.962;2023-07-29T08:12:57;100623.50;;;19.00;81.06
36222;BME280;22266;52.340;4.962;2023-07-29T08:15:23;100625.19;;;19.06;80.78
36222;BME280;22266;52.340;4.962;2023-07-29T08:17:50;100628.22;;;19.10;80.58
36222;BME280;22266;52.340;4.962;2023-07-29T08:20:16;100630.78;;;19.16;80.22
36222;BME280;22266;52.340;4.962;2023-07-29T08:22:43;100629.19;;;19.20;79.91
36222;BME280;22266;52.340;4.962;2023-07-29T08:25:10;100632.97;;;19.19;79.42
36222;BME280;22266;52.340;4.962;2023-07-29T08:27:36;100635.47;;;19.21;78.52
36222;BME280;22266;52.340;4.962;2023-07-29T08:30:03;100637.66;;;19.24;77.80
36222;BME280;22266;52.340;4.962;2023-07-29T08:32:29;100645.59;;;19.25;77.22
36222;BME280;22266;52.340;4.962;2023-07-29T08:34:56;100647.25;;;19.26;76.57
36222;BME280;22266;52.340;4.962;2023-07-29T08:37:23;100645.84;;;19.24;76.32
36222;BME280;22266;52.340;4.962;2023-07-29T08:39:49;100642.28;;;19.23;76.12
36222;BME280;22266;52.340;4.962;2023-07-29T08:42:16;100640.91;;;19.21;76.30
36222;BME280;22266;52.340;4.962;2023-07-29T08:44:45;100639.50;;;19.18;75.67
36222;BME280;22266;52.340;4.962;2023-07-29T08:47:12;100641.72;;;19.21;75.73
36222;BME280;22266;52.340;4.962;2023-07-29T08:49:42;100645.31;;;19.27;75.86
36222;BME280;22266;52.340;4.962;2023-07-29T08:52:09;100644.56;;;19.32;75.71
36222;BME280;22266;52.340;4.962;2023-07-29T08:54:36;100647.88;;;19.34;75.58
36222;BME280;22266;52.340;4.962;2023-07-29T08:57:03;100649.78;;;19.33;75.57
36222;BME280;22266;52.340;4.962;2023-07-29T08:59:30;100644.56;;;19.32;75.48
36222;BME280;22266;52.340;4.962;2023-07-29T09:01:58;100647.28;;;19.32;75.42
36222;BME280;22266;52.340;4.962;2023-07-29T09:04:24;100649.50;;;19.35;75.50
36222;BME280;22266;52.340;4.962;2023-07-29T09:06:52;100654.19;;;19.39;75.61
36222;BME280;22266;52.340;4.962;2023-07-29T09:09:20;100662.38;;;19.39;75.67
36222;BME280;22266;52.340;4.962;2023-07-29T09:11:47;100666.03;;;19.23;75.42
36222;BME280;22266;52.340;4.962;2023-07-29T09:14:14;100662.22;;;19.24;75.56
36222;BME280;22266;52.340;4.962;2023-07-29T09:16:41;100663.88;;;19.25;75.45
36222;BME280;22266;52.340;4.962;2023-07-29T09:19:08;100664.38;;;19.22;76.39
36222;BME280;22266;52.340;4.962;2023-07-29T09:21:38;100668.53;;;19.24;76.78
36222;BME280;22266;52.340;4.962;2023-07-29T09:24:05;100668.81;;;19.28;77.26
36222;BME280;22266;52.340;4.962;2023-07-29T09:26:34;100667.47;;;19.31;77.34
36222;BME280;22266;52.340;4.962;2023-07-29T09:29:01;100669.66;;;19.29;77.28
36222;BME280;22266;52.340;4.962;2023-07-29T09:31:28;100663.75;;;19.37;77.14
36222;BME280;22266;52.340;4.962;2023-07-29T09:34:01;100661.09;;;19.47;76.97
36222;BME280;22266;52.340;4.962;2023-07-29T09:36:30;100659.00;;;19.54;76.42
36222;BME280;22266;52.340;4.962;2023-07-29T09:38:58;100657.34;;;19.53;75.93
36222;BME280;22266;52.340;4.962;2023-07-29T09:41:26;100659.00;;;19.54;75.47
36222;BME280;22266;52.340;4.962;2023-07-29T09:43:58;100650.53;;;19.56;74.91
36222;BME280;22266;52.340;4.962;2023-07-29T09:46:32;100657.38;;;19.58;74.58
36222;BME280;22266;52.340;4.962;2023-07-29T09:48:59;100649.28;;;19.63;74.41
36222;BME280;22266;52.340;4.962;2023-07-29T09:51:27;100651.44;;;19.61;73.95
36222;BME280;22266;52.340;4.962;2023-07-29T09:53:55;100651.50;;;19.66;73.77
36222;BME280;22266;52.340;4.962;2023-07-29T09:56:26;100636.78;;;19.72;73.31
36222;BME280;22266;52.340;4.962;2023-07-29T09:58:55;100638.50;;;19.79;73.19
36222;BME280;22266;52.340;4.962;2023-07-29T10:01:23;100641.25;;;19.84;72.32
36222;BME280;22266;52.340;4.962;2023-07-29T10:03:50;100640.47;;;19.88;72.28
36222;BME280;22266;52.340;4.962;2023-07-29T10:06:17;100645.16;;;19.93;72.07
36222;BME280;22266;52.340;4.962;2023-07-29T10:08:44;100644.97;;;20.05;71.83
36222;BME280;22266;52.340;4.962;2023-07-29T10:11:11;100651.22;;;20.00;71.14
36222;BME280;22266;52.340;4.962;2023-07-29T10:13:38;100654.47;;;19.97;70.95
36222;BME280;22266;52.340;4.962;2023-07-29T10:16:05;100662.63;;;19.92;70.63
36222;BME280;22266;52.340;4.962;2023-07-29T10:18:35;100661.78;;;19.86;70.49
36222;BME280;22266;52.340;4.962;2023-07-29T10:21:02;100648.13;;;19.86;70.50
36222;BME280;22266;52.340;4.962;2023-07-29T10:23:33;100652.22;;;19.89;70.97
36222;BME280;22266;52.340;4.962;2023-07-29T10:26:05;100653.34;;;19.93;70.86
36222;BME280;22266;52.340;4.962;2023-07-29T10:28:33;100651.69;;;19.92;70.71
36222;BME280;22266;52.340;4.962;2023-07-29T10:31:02;100656.66;;;19.95;70.44
36222;BME280;22266;52.340;4.962;2023-07-29T10:33:31;100669.22;;;19.96;70.61
36222;BME280;22266;52.340;4.962;2023-07-29T10:35:59;100661.00;;;19.91;70.71
36222;BME280;22266;52.340;4.962;2023-07-29T10:38:27;100659.88;;;19.87;70.82
36222;BME280;22266;52.340;4.962;2023-07-29T10:40:57;100667.75;;;19.83;70.94
36222;BME280;22266;52.340;4.962;2023-07-29T10:43:35;100660.13;;;19.85;71.27
36222;BME280;22266;52.340;4.962;2023-07-29T10:46:20;100657.69;;;19.89;71.84
36222;BME280;22266;52.340;4.962;2023-07-29T10:53:58;100669.84;;;20.08;72.02
36222;BME280;22266;52.340;4.962;2023-07-29T10:56:32;100668.72;;;20.04;71.55
36222;BME280;22266;52.340;4.962;2023-07-29T10:59:32;100666.31;;;20.08;71.54
36222;BME280;22266;52.340;4.962;2023-07-29T11:02:00;100665.50;;;20.07;71.54
36222;BME280;22266;52.340;4.962;2023-07-29T11:04:29;100667.44;;;20.12;71.23
36222;BME280;22266;52.340;4.962;2023-07-29T11:15:22;100666.25;;;19.97;71.35
36222;BME280;22266;52.340;4.962;2023-07-29T11:17:57;100666.47;;;19.96;71.17
36222;BME280;22266;52.340;4.962;2023-07-29T11:20:30;100665.88;;;19.89;71.38
36222;BME280;22266;52.340;4.962;2023-07-29T11:23:02;100665.06;;;19.88;71.29
36222;BME280;22266;52.340;4.962;2023-07-29T11:25:30;100665.63;;;19.90;71.84
36222;BME280;22266;52.340;4.962;2023-07-29T11:27:58;100664.28;;;19.93;71.82
36222;BME280;22266;52.340;4.962;2023-07-29T11:30:27;100661.59;;;19.98;71.69
36222;BME280;22266;52.340;4.962;2023-07-29T11:32:56;100665.75;;;20.06;71.49
36222;BME280;22266;52.340;4.962;2023-07-29T11:35:23;100663.38;;;20.14;71.34
36222;BME280;22266;52.340;4.962;2023-07-29T11:37:51;100661.19;;;20.21;71.40
36222;BME280;22266;52.340;4.962;2023-07-29T11:40:20;100657.72;;;20.26;71.37
36222;BME280;22266;52.340;4.962;2023-07-29T11:42:48;100649.53;;;20.31;71.19
36222;BME280;22266;52.340;4.962;2023-07-29T11:45:17;100656.63;;;20.32;71.42
36222;BME280;22266;52.340;4.962;2023-07-29T11:47:45;100662.09;;;20.32;71.79
36222;BME280;22266;52.340;4.962;2023-07-29T11:50:13;100662.94;;;20.33;71.48
36222;BME280;22266;52.340;4.962;2023-07-29T11:52:42;100662.94;;;20.33;71.29
36222;BME280;22266;52.340;4.962;2023-07-29T11:55:09;100654.91;;;20.21;70.71
36222;BME280;22266;52.340;4.962;2023-07-29T11:57:37;100660.88;;;20.13;70.92
36222;BME280;22266;52.340;4.962;2023-07-29T12:00:05;100666.28;;;20.03;71.63
36222;BME280;22266;52.340;4.962;2023-07-29T12:02:38;100669.72;;;19.93;72.09
36222;BME280;22266;52.340;4.962;2023-07-29T12:05:05;100668.09;;;19.92;72.17
36222;BME280;22266;52.340;4.962;2023-07-29T12:07:32;100679.31;;;19.95;72.38
36222;BME280;22266;52.340;4.962;2023-07-29T12:10:02;100678.50;;;19.95;72.85
36222;BME280;22266;52.340;4.962;2023-07-29T12:12:29;100677.09;;;19.92;73.71
36222;BME280;22266;52.340;4.962;2023-07-29T12:14:56;100685.84;;;19.89;74.77
36222;BME280;22266;52.340;4.962;2023-07-29T12:17:23;100682.84;;;19.91;75.71
36222;BME280;22266;52.340;4.962;2023-07-29T12:19:54;100683.19;;;19.99;75.41
36222;BME280;22266;52.340;4.962;2023-07-29T12:22:21;100683.19;;;19.99;75.81
36222;BME280;22266;52.340;4.962;2023-07-29T12:24:50;100685.16;;;20.09;76.67
36222;BME280;22266;52.340;4.962;2023-07-29T12:27:17;100687.69;;;20.16;77.05
36222;BME280;22266;52.340;4.962;2023-07-29T12:29:44;100673.00;;;20.22;77.98
36222;BME280;22266;52.340;4.962;2023-07-29T12:32:13;100666.72;;;20.27;77.64
36222;BME280;22266;52.340;4.962;2023-07-29T12:34:40;100668.09;;;20.29;77.88
36222;BME280;22266;52.340;4.962;2023-07-29T12:37:07;100660.78;;;20.35;78.51
36222;BME280;22266;52.340;4.962;2023-07-29T12:39:39;100653.69;;;20.39;78.90
36222;BME280;22266;52.340;4.962;2023-07-29T12:42:06;100658.59;;;20.37;78.93
36222;BME280;22266;52.340;4.962;2023-07-29T12:44:34;100665.22;;;20.46;79.41
36222;BME280;22266;52.340;4.962;2023-07-29T12:47:02;100673.97;;;20.48;79.12
36222;BME280;22266;52.340;4.962;2023-07-29T12:49:30;100676.16;;;20.46;78.87
36222;BME280;22266;52.340;4.962;2023-07-29T12:51:59;100669.09;;;20.50;78.65
36222;BME280;22266;52.340;4.962;2023-07-29T12:54:26;100666.63;;;20.48;78.41
36222;BME280;22266;52.340;4.962;2023-07-29T12:56:52;100674.75;;;20.43;78.10
36222;BME280;22266;52.340;4.962;2023-07-29T12:59:19;100657.88;;;20.52;78.79
36222;BME280;22266;52.340;4.962;2023-07-29T13:01:45;100664.19;;;20.57;78.46
36222;BME280;22266;52.340;4.962;2023-07-29T13:04:12;100667.50;;;20.59;78.03
36222;BME280;22266;52.340;4.962;2023-07-29T13:06:38;100658.19;;;20.55;77.72
36222;BME280;22266;52.340;4.962;2023-07-29T13:09:06;100670.53;;;20.63;77.49